CheckWX is a tool to help pilots better visualize weather data.  It is not intended as a substitute for an official pre-flight weather briefing.

23:47:37 UTC

KBUR TAF
Bob Hope Airport
Burbank, California, USA
KBUR 191741Z 1918/2018 00000KT P6SM BKN200 FM192100 16005KT P6SM BKN200 FM200200 VRB03KT P6SM OVC200 FM201400 14005KT P6SM BKN200

Jan-19@
18:00 UTC

Jan-19 @ 18:00 UTC

Jan-19@
21:00 UTC

Jan-19 @ 21:00 UTC

KBUR 191741Z 1918/2018 00000KT P6SM BKN200

Expired

Cloud Levels
  • Broken at 20,000' AGL

Jan-19@
21:00 UTC

Jan-19 @ 21:00 UTC

Jan-20@
02:00 UTC

Jan-20 @ 02:00 UTC

FM192100 16005KT P6SM BKN200

From

From Standard forecast or significant change

Wind
  • 160° at 5 KTS
Cloud Levels
  • Broken at 20,000' AGL

Jan-20@
02:00 UTC

Jan-20 @ 02:00 UTC

Jan-20@
14:00 UTC

Jan-20 @ 14:00 UTC

FM200200 VRB03KT P6SM OVC200

From

From Standard forecast or significant change

Wind
  • Variable at 3 KTS
Cloud Levels
  • Overcast at 20,000' AGL

Jan-20@
14:00 UTC

Jan-20 @ 14:00 UTC

Jan-20@
18:00 UTC

Jan-20 @ 18:00 UTC

FM201400 14005KT P6SM BKN200

From

From Standard forecast or significant change

Wind
  • 140° at 5 KTS
Cloud Levels
  • Broken at 20,000' AGL